sensor_id;sensor_type;location;lat;lon;timestamp;pressure;altitude;pressure_sealevel;temperature;humidity
11198;BME280;5655;48.744;9.162;2024-01-27T00:01:31;97777.84;;;5.89;100.00
11198;BME280;5655;48.744;9.162;2024-01-27T00:03:57;97782.38;;;5.89;100.00
11198;BME280;5655;48.744;9.162;2024-01-27T00:06:22;97793.47;;;5.77;100.00
11198;BME280;5655;48.744;9.162;2024-01-27T00:08:47;97782.53;;;5.65;100.00
11198;BME280;5655;48.744;9.162;2024-01-27T00:11:13;97782.56;;;5.52;100.00
11198;BME280;5655;48.744;9.162;2024-01-27T00:13:38;97778.03;;;5.52;100.00
11198;BME280;5655;48.744;9.162;2024-01-27T00:16:04;97777.25;;;5.38;100.00
11198;BME280;5655;48.744;9.162;2024-01-27T00:18:29;97787.84;;;5.24;100.00
11198;BME280;5655;48.744;9.162;2024-01-27T00:20:54;97784.91;;;5.26;100.00
11198;BME280;5655;48.744;9.162;2024-01-27T00:23:20;97780.97;;;5.51;100.00
11198;BME280;5655;48.744;9.162;2024-01-27T00:25:45;97783.63;;;5.37;100.00
11198;BME280;5655;48.744;9.162;2024-01-27T00:28:10;97781.38;;;5.30;100.00
11198;BME280;5655;48.744;9.162;2024-01-27T00:30:36;97788.34;;;5.40;100.00
11198;BME280;5655;48.744;9.162;2024-01-27T00:33:01;97781.81;;;5.19;100.00
11198;BME280;5655;48.744;9.162;2024-01-27T00:35:27;97795.50;;;5.12;100.00
11198;BME280;5655;48.744;9.162;2024-01-27T00:37:52;97791.47;;;4.82;100.00
11198;BME280;5655;48.744;9.162;2024-01-27T00:40:18;97788.13;;;4.77;100.00
11198;BME280;5655;48.744;9.162;2024-01-27T00:42:43;97783.53;;;4.82;100.00
11198;BME280;5655;48.744;9.162;2024-01-27T00:45:08;97787.97;;;5.00;100.00
11198;BME280;5655;48.744;9.162;2024-01-27T00:47:34;97796.06;;;5.09;100.00
11198;BME280;5655;48.744;9.162;2024-01-27T00:49:59;97794.47;;;4.94;100.00
11198;BME280;5655;48.744;9.162;2024-01-27T00:52:26;97800.91;;;4.88;100.00
11198;BME280;5655;48.744;9.162;2024-01-27T00:54:51;97796.53;;;4.97;100.00
11198;BME280;5655;48.744;9.162;2024-01-27T00:57:17;97790.16;;;4.98;100.00
11198;BME280;5655;48.744;9.162;2024-01-27T00:59:42;97788.63;;;4.79;100.00
11198;BME280;5655;48.744;9.162;2024-01-27T01:02:07;97789.13;;;4.62;100.00
11198;BME280;5655;48.744;9.162;2024-01-27T01:04:33;97788.66;;;4.60;100.00
11198;BME280;5655;48.744;9.162;2024-01-27T01:06:58;97799.00;;;4.75;100.00
11198;BME280;5655;48.744;9.162;2024-01-27T01:09:24;97800.53;;;4.63;100.00
11198;BME280;5655;48.744;9.162;2024-01-27T01:11:49;97805.13;;;4.57;100.00
11198;BME280;5655;48.744;9.162;2024-01-27T01:14:14;97803.56;;;4.56;100.00
11198;BME280;5655;48.744;9.162;2024-01-27T01:16:40;97808.00;;;4.42;100.00
11198;BME280;5655;48.744;9.162;2024-01-27T01:19:05;97812.00;;;4.21;100.00
11198;BME280;5655;48.744;9.162;2024-01-27T01:21:31;97810.28;;;4.30;100.00
11198;BME280;5655;48.744;9.162;2024-01-27T01:23:56;97813.66;;;4.35;100.00
11198;BME280;5655;48.744;9.162;2024-01-27T01:26:22;97815.00;;;4.33;100.00
11198;BME280;5655;48.744;9.162;2024-01-27T01:28:47;97809.78;;;4.09;100.00
11198;BME280;5655;48.744;9.162;2024-01-27T01:31:12;97806.28;;;4.14;100.00
11198;BME280;5655;48.744;9.162;2024-01-27T01:33:38;97811.28;;;4.34;100.00
11198;BME280;5655;48.744;9.162;2024-01-27T01:36:03;97809.28;;;4.26;100.00
11198;BME280;5655;48.744;9.162;2024-01-27T01:38:28;97808.41;;;4.11;100.00
11198;BME280;5655;48.744;9.162;2024-01-27T01:40:54;97808.19;;;4.08;100.00
11198;BME280;5655;48.744;9.162;2024-01-27T01:43:19;97807.78;;;4.01;100.00
11198;BME280;5655;48.744;9.162;2024-01-27T01:45:44;97813.59;;;4.22;100.00
11198;BME280;5655;48.744;9.162;2024-01-27T01:48:10;97812.53;;;4.23;100.00
11198;BME280;5655;48.744;9.162;2024-01-27T01:50:35;97811.13;;;4.06;100.00
11198;BME280;5655;48.744;9.162;2024-01-27T01:53:01;97809.41;;;4.16;100.00
11198;BME280;5655;48.744;9.162;2024-01-27T01:55:26;97819.44;;;4.19;100.00
11198;BME280;5655;48.744;9.162;2024-01-27T01:57:52;97812.34;;;3.95;100.00
11198;BME280;5655;48.744;9.162;2024-01-27T02:00:17;97818.81;;;3.84;100.00
11198;BME280;5655;48.744;9.162;2024-01-27T02:02:43;97813.06;;;4.01;100.00
11198;BME280;5655;48.744;9.162;2024-01-27T02:05:10;97822.72;;;4.10;100.00
11198;BME280;5655;48.744;9.162;2024-01-27T02:10:07;97827.91;;;4.21;100.00
11198;BME280;5655;48.744;9.162;2024-01-27T02:12:37;97835.03;;;4.01;100.00
11198;BME280;5655;48.744;9.162;2024-01-27T02:15:03;97831.19;;;4.13;100.00
11198;BME280;5655;48.744;9.162;2024-01-27T02:17:28;97835.34;;;4.19;100.00
11198;BME280;5655;48.744;9.162;2024-01-27T02:19:53;97849.22;;;4.10;100.00
11198;BME280;5655;48.744;9.162;2024-01-27T02:22:19;97843.59;;;3.93;100.00
11198;BME280;5655;48.744;9.162;2024-01-27T02:24:44;97847.09;;;3.89;100.00
11198;BME280;5655;48.744;9.162;2024-01-27T02:27:09;97853.19;;;3.89;100.00
11198;BME280;5655;48.744;9.162;2024-01-27T02:29:35;97848.91;;;3.70;100.00
11198;BME280;5655;48.744;9.162;2024-01-27T02:32:00;97860.34;;;3.89;100.00
11198;BME280;5655;48.744;9.162;2024-01-27T02:34:25;97858.03;;;3.82;100.00
11198;BME280;5655;48.744;9.162;2024-01-27T02:36:50;97865.94;;;3.87;100.00
11198;BME280;5655;48.744;9.162;2024-01-27T02:39:16;97857.09;;;3.73;100.00
11198;BME280;5655;48.744;9.162;2024-01-27T02:41:41;97867.06;;;3.81;100.00
11198;BME280;5655;48.744;9.162;2024-01-27T02:44:06;97861.75;;;3.81;100.00
11198;BME280;5655;48.744;9.162;2024-01-27T02:46:32;97873.59;;;3.65;100.00
11198;BME280;5655;48.744;9.162;2024-01-27T02:48:57;97860.41;;;3.60;100.00
11198;BME280;5655;48.744;9.162;2024-01-27T02:51:22;97872.34;;;3.57;100.00
11198;BME280;5655;48.744;9.162;2024-01-27T02:53:48;97866.56;;;3.79;100.00
11198;BME280;5655;48.744;9.162;2024-01-27T02:56:13;97860.75;;;3.77;100.00
11198;BME280;5655;48.744;9.162;2024-01-27T02:58:40;97867.16;;;3.95;100.00
11198;BME280;5655;48.744;9.162;2024-01-27T03:01:06;97875.06;;;4.00;100.00
11198;BME280;5655;48.744;9.162;2024-01-27T03:03:31;97873.22;;;4.00;100.00
11198;BME280;5655;48.744;9.162;2024-01-27T03:05:56;97883.28;;;3.75;100.00
11198;BME280;5655;48.744;9.162;2024-01-27T03:08:23;97876.81;;;3.86;100.00
11198;BME280;5655;48.744;9.162;2024-01-27T03:10:48;97878.34;;;3.92;100.00
11198;BME280;5655;48.744;9.162;2024-01-27T03:13:13;97890.94;;;3.76;100.00
11198;BME280;5655;48.744;9.162;2024-01-27T03:15:39;97887.41;;;3.86;100.00
11198;BME280;5655;48.744;9.162;2024-01-27T03:18:04;97883.38;;;3.64;100.00
11198;BME280;5655;48.744;9.162;2024-01-27T03:20:29;97877.81;;;3.66;100.00
11198;BME280;5655;48.744;9.162;2024-01-27T03:22:56;97870.16;;;3.36;100.00
11198;BME280;5655;48.744;9.162;2024-01-27T03:25:22;97863.59;;;3.28;100.00
11198;BME280;5655;48.744;9.162;2024-01-27T03:27:47;97865.75;;;3.26;100.00
11198;BME280;5655;48.744;9.162;2024-01-27T03:30:13;97871.34;;;3.19;100.00
11198;BME280;5655;48.744;9.162;2024-01-27T03:32:38;97881.56;;;3.36;100.00
11198;BME280;5655;48.744;9.162;2024-01-27T03:35:04;97879.66;;;3.37;100.00
11198;BME280;5655;48.744;9.162;2024-01-27T03:37:29;97895.13;;;3.25;100.00
11198;BME280;5655;48.744;9.162;2024-01-27T03:39:54;97899.31;;;3.31;100.00
11198;BME280;5655;48.744;9.162;2024-01-27T03:42:20;97906.09;;;3.42;100.00
11198;BME280;5655;48.744;9.162;2024-01-27T03:44:46;97911.34;;;3.47;100.00
11198;BME280;5655;48.744;9.162;2024-01-27T03:47:11;97918.19;;;3.53;100.00
11198;BME280;5655;48.744;9.162;2024-01-27T03:49:36;97907.53;;;3.29;100.00
11198;BME280;5655;48.744;9.162;2024-01-27T03:52:02;97915.34;;;3.73;100.00
11198;BME280;5655;48.744;9.162;2024-01-27T03:54:27;97915.88;;;3.75;100.00
11198;BME280;5655;48.744;9.162;2024-01-27T03:56:54;97925.53;;;3.85;100.00
11198;BME280;5655;48.744;9.162;2024-01-27T03:59:19;97923.28;;;3.73;100.00
11198;BME280;5655;48.744;9.162;2024-01-27T04:01:45;97917.53;;;3.66;100.00
11198;BME280;5655;48.744;9.162;2024-01-27T04:04:10;97921.25;;;3.65;100.00
11198;BME280;5655;48.744;9.162;2024-01-27T04:06:39;97920.44;;;3.64;100.00
11198;BME280;5655;48.744;9.162;2024-01-27T04:09:05;97922.34;;;3.59;100.00
11198;BME280;5655;48.744;9.162;2024-01-27T04:11:34;97916.38;;;3.48;100.00
11198;BME280;5655;48.744;9.162;2024-01-27T04:13:59;97913.91;;;3.57;100.00
11198;BME280;5655;48.744;9.162;2024-01-27T04:16:24;97913.69;;;3.53;100.00
11198;BME280;5655;48.744;9.162;2024-01-27T04:18:50;97911.50;;;3.32;100.00
11198;BME280;5655;48.744;9.162;2024-01-27T04:21:15;97912.72;;;3.44;100.00
11198;BME280;5655;48.744;9.162;2024-01-27T04:23:40;97914.00;;;3.47;100.00
11198;BME280;5655;48.744;9.162;2024-01-27T04:26:05;97914.22;;;3.50;100.00
11198;BME280;5655;48.744;9.162;2024-01-27T04:28:31;97922.53;;;3.39;100.00
11198;BME280;5655;48.744;9.162;2024-01-27T04:30:57;97922.88;;;3.32;100.00
11198;BME280;5655;48.744;9.162;2024-01-27T04:33:22;97927.09;;;3.28;100.00
11198;BME280;5655;48.744;9.162;2024-01-27T04:35:47;97922.53;;;3.39;100.00
11198;BME280;5655;48.744;9.162;2024-01-27T04:38:12;97919.28;;;3.47;100.00
11198;BME280;5655;48.744;9.162;2024-01-27T04:40:38;97922.97;;;3.51;100.00
11198;BME280;5655;48.744;9.162;2024-01-27T04:43:03;97923.66;;;3.61;100.00
11198;BME280;5655;48.744;9.162;2024-01-27T04:45:28;97923.47;;;3.53;100.00
11198;BME280;5655;48.744;9.162;2024-01-27T04:47:54;97926.72;;;3.45;100.00
11198;BME280;5655;48.744;9.162;2024-01-27T04:50:20;97919.28;;;3.47;100.00
11198;BME280;5655;48.744;9.162;2024-01-27T04:52:45;97927.22;;;3.47;100.00
11198;BME280;5655;48.744;9.162;2024-01-27T04:55:11;97928.22;;;3.80;100.00
11198;BME280;5655;48.744;9.162;2024-01-27T04:57:37;97930.31;;;3.88;100.00
11198;BME280;5655;48.744;9.162;2024-01-27T05:00:02;97929.50;;;3.87;100.00
11198;BME280;5655;48.744;9.162;2024-01-27T05:02:30;97934.22;;;3.90;100.00
11198;BME280;5655;48.744;9.162;2024-01-27T05:04:55;97934.22;;;3.90;100.00
11198;BME280;5655;48.744;9.162;2024-01-27T05:07:21;97943.72;;;3.96;100.00
11198;BME280;5655;48.744;9.162;2024-01-27T05:09:46;97939.22;;;3.97;100.00
11198;BME280;5655;48.744;9.162;2024-01-27T05:12:11;97939.97;;;3.97;100.00
11198;BME280;5655;48.744;9.162;2024-01-27T05:14:36;97927.41;;;3.84;100.00
11198;BME280;5655;48.744;9.162;2024-01-27T05:17:02;97931.28;;;3.68;100.00
11198;BME280;5655;48.744;9.162;2024-01-27T05:19:27;97933.31;;;3.76;100.00
11198;BME280;5655;48.744;9.162;2024-01-27T05:21:53;97934.22;;;3.90;100.00
11198;BME280;5655;48.744;9.162;2024-01-27T05:24:18;97934.31;;;3.80;100.00
11198;BME280;5655;48.744;9.162;2024-01-27T05:26:43;97921.16;;;3.75;100.00
11198;BME280;5655;48.744;9.162;2024-01-27T05:29:09;97934.97;;;3.67;100.00
11198;BME280;5655;48.744;9.162;2024-01-27T05:31:34;97930.25;;;3.64;100.00
11198;BME280;5655;48.744;9.162;2024-01-27T05:34:00;97927.56;;;3.69;100.00
11198;BME280;5655;48.744;9.162;2024-01-27T05:36:25;97931.97;;;3.79;100.00
11198;BME280;5655;48.744;9.162;2024-01-27T05:38:51;97923.28;;;3.73;100.00
11198;BME280;5655;48.744;9.162;2024-01-27T05:41:16;97923.44;;;3.24;100.00
11198;BME280;5655;48.744;9.162;2024-01-27T05:43:42;97923.00;;;3.46;100.00
11198;BME280;5655;48.744;9.162;2024-01-27T05:46:08;97928.44;;;3.59;100.00
11198;BME280;5655;48.744;9.162;2024-01-27T05:48:34;97932.19;;;3.82;100.00
11198;BME280;5655;48.744;9.162;2024-01-27T05:51:00;97931.47;;;3.48;100.00
11198;BME280;5655;48.744;9.162;2024-01-27T05:53:26;97935.78;;;3.67;100.00
11198;BME280;5655;48.744;9.162;2024-01-27T05:55:52;97938.78;;;3.56;100.00
11198;BME280;5655;48.744;9.162;2024-01-27T05:58:19;97931.41;;;3.53;100.00
11198;BME280;5655;48.744;9.162;2024-01-27T06:00:47;97936.19;;;3.51;100.00
11198;BME280;5655;48.744;9.162;2024-01-27T06:03:13;97939.69;;;3.07;100.00
11198;BME280;5655;48.744;9.162;2024-01-27T06:05:38;97936.63;;;2.95;100.00
11198;BME280;5655;48.744;9.162;2024-01-27T06:08:05;97938.78;;;2.88;100.00
11198;BME280;5655;48.744;9.162;2024-01-27T06:10:30;97935.41;;;3.16;100.00
11198;BME280;5655;48.744;9.162;2024-01-27T06:12:56;97942.50;;;2.87;100.00
11198;BME280;5655;48.744;9.162;2024-01-27T06:15:22;97936.44;;;2.77;100.00
11198;BME280;5655;48.744;9.162;2024-01-27T06:17:47;97932.47;;;2.84;100.00
11198;BME280;5655;48.744;9.162;2024-01-27T06:20:13;97934.59;;;2.82;100.00
11198;BME280;5655;48.744;9.162;2024-01-27T06:22:38;97938.22;;;2.91;100.00
11198;BME280;5655;48.744;9.162;2024-01-27T06:25:04;97952.94;;;3.07;100.00
11198;BME280;5655;48.744;9.162;2024-01-27T06:27:29;97954.50;;;3.08;100.00
11198;BME280;5655;48.744;9.162;2024-01-27T06:29:55;97954.03;;;3.01;100.00
11198;BME280;5655;48.744;9.162;2024-01-27T06:32:20;97961.91;;;3.06;100.00
11198;BME280;5655;48.744;9.162;2024-01-27T06:34:46;97956.81;;;3.20;100.00
11198;BME280;5655;48.744;9.162;2024-01-27T06:37:11;97966.56;;;3.25;100.00
11198;BME280;5655;48.744;9.162;2024-01-27T06:39:36;97961.00;;;3.26;100.00
11198;BME280;5655;48.744;9.162;2024-01-27T06:42:02;97975.53;;;3.29;100.00
11198;BME280;5655;48.744;9.162;2024-01-27T06:44:27;97963.88;;;3.30;100.00
11198;BME280;5655;48.744;9.162;2024-01-27T06:46:52;97984.50;;;3.33;100.00
11198;BME280;5655;48.744;9.162;2024-01-27T06:49:18;97975.22;;;3.35;100.00
11198;BME280;5655;48.744;9.162;2024-01-27T06:51:43;97974.44;;;3.35;100.00
11198;BME280;5655;48.744;9.162;2024-01-27T06:54:09;97976.03;;;3.36;100.00
11198;BME280;5655;48.744;9.162;2024-01-27T06:56:34;97964.66;;;3.35;100.00
11198;BME280;5655;48.744;9.162;2024-01-27T06:59:00;97969.38;;;3.38;100.00
11198;BME280;5655;48.744;9.162;2024-01-27T07:01:25;97974.94;;;3.37;100.00
11198;BME280;5655;48.744;9.162;2024-01-27T07:03:50;97973.09;;;3.37;100.00
11198;BME280;5655;48.744;9.162;2024-01-27T07:06:16;97979.97;;;3.38;100.00
11198;BME280;5655;48.744;9.162;2024-01-27T07:08:41;97983.41;;;3.39;100.00
11198;BME280;5655;48.744;9.162;2024-01-27T07:11:07;97967.66;;;3.24;100.00
11198;BME280;5655;48.744;9.162;2024-01-27T07:13:33;97965.09;;;3.08;100.00
11198;BME280;5655;48.744;9.162;2024-01-27T07:15:58;97962.47;;;3.03;100.00
11198;BME280;5655;48.744;9.162;2024-01-27T07:18:24;97970.63;;;3.12;100.00
11198;BME280;5655;48.744;9.162;2024-01-27T07:20:50;97971.66;;;3.16;100.00
11198;BME280;5655;48.744;9.162;2024-01-27T07:23:16;97974.59;;;3.14;100.00
11198;BME280;5655;48.744;9.162;2024-01-27T07:25:42;97964.09;;;2.99;100.00
11198;BME280;5655;48.744;9.162;2024-01-27T07:28:08;97969.47;;;2.84;100.00
11198;BME280;5655;48.744;9.162;2024-01-27T07:30:33;97967.34;;;2.86;100.00
11198;BME280;5655;48.744;9.162;2024-01-27T07:32:58;97973.91;;;2.94;100.00
11198;BME280;5655;48.744;9.162;2024-01-27T07:35:24;97968.59;;;2.99;100.00
11198;BME280;5655;48.744;9.162;2024-01-27T07:37:49;97967.84;;;2.93;100.00
11198;BME280;5655;48.744;9.162;2024-01-27T07:40:14;97969.16;;;2.91;100.00
11198;BME280;5655;48.744;9.162;2024-01-27T07:42:40;97972.03;;;2.99;100.00
11198;BME280;5655;48.744;9.162;2024-01-27T07:45:06;97968.81;;;3.07;100.00
11198;BME280;5655;48.744;9.162;2024-01-27T07:47:33;97973.50;;;3.15;100.00
11198;BME280;5655;48.744;9.162;2024-01-27T07:49:59;97968.13;;;3.31;100.00
11198;BME280;5655;48.744;9.162;2024-01-27T07:52:24;97972.81;;;3.39;100.00
11198;BME280;5655;48.744;9.162;2024-01-27T07:54:49;97969.84;;;3.45;100.00
11198;BME280;5655;48.744;9.162;2024-01-27T07:57:14;97976.41;;;3.53;100.00
11198;BME280;5655;48.744;9.162;2024-01-27T07:59:40;97976.88;;;3.60;100.00
11198;BME280;5655;48.744;9.162;2024-01-27T08:02:05;97971.03;;;3.63;100.00
11198;BME280;5655;48.744;9.162;2024-01-27T08:04:31;97973.38;;;3.70;100.00
11198;BME280;5655;48.744;9.162;2024-01-27T08:06:56;97965.09;;;3.76;100.00
11198;BME280;5655;48.744;9.162;2024-01-27T08:09:21;97962.66;;;3.80;100.00
11198;BME280;5655;48.744;9.162;2024-01-27T08:11:47;97968.94;;;3.89;100.00
11198;BME280;5655;48.744;9.162;2024-01-27T08:14:16;97969.19;;;3.92;100.00
11198;BME280;5655;48.744;9.162;2024-01-27T08:16:41;97961.25;;;3.92;100.00
11198;BME280;5655;48.744;9.162;2024-01-27T08:19:07;97968.00;;;4.03;100.00
11198;BME280;5655;48.744;9.162;2024-01-27T08:21:32;97965.47;;;4.17;100.00
11198;BME280;5655;48.744;9.162;2024-01-27T08:23:57;97965.66;;;4.26;100.00
11198;BME280;5655;48.744;9.162;2024-01-27T08:26:23;97964.22;;;4.33;100.00
11198;BME280;5655;48.744;9.162;2024-01-27T08:28:48;97972.94;;;4.39;100.00
11198;BME280;5655;48.744;9.162;2024-01-27T08:31:14;97980.88;;;4.39;100.00
11198;BME280;5655;48.744;9.162;2024-01-27T08:33:40;97969.22;;;4.40;100.00
11198;BME280;5655;48.744;9.162;2024-01-27T08:36:05;97975.72;;;4.24;100.00
11198;BME280;5655;48.744;9.162;2024-01-27T08:38:30;97964.03;;;4.30;100.00
11198;BME280;5655;48.744;9.162;2024-01-27T08:40:56;97953.06;;;4.36;100.00
11198;BME280;5655;48.744;9.162;2024-01-27T08:43:21;97951.19;;;4.37;100.00
11198;BME280;5655;48.744;9.162;2024-01-27T08:45:46;97949.44;;;4.27;100.00
11198;BME280;5655;48.744;9.162;2024-01-27T08:48:12;97950.81;;;4.25;100.00
11198;BME280;5655;48.744;9.162;2024-01-27T08:50:37;97944.84;;;4.38;100.00
11198;BME280;5655;48.744;9.162;2024-01-27T08:53:03;97952.63;;;4.29;100.00
11198;BME280;5655;48.744;9.162;2024-01-27T08:55:28;97945.94;;;4.32;100.00
11198;BME280;5655;48.744;9.162;2024-01-27T08:57:55;97960.34;;;4.26;100.00
11198;BME280;5655;48.744;9.162;2024-01-27T09:00:21;97953.69;;;4.28;100.00
11198;BME280;5655;48.744;9.162;2024-01-27T09:02:46;97950.19;;;4.33;100.00
11198;BME280;5655;48.744;9.162;2024-01-27T09:05:12;97960.63;;;4.48;100.00
11198;BME280;5655;48.744;9.162;2024-01-27T09:07:38;97961.31;;;4.35;100.00
11198;BME280;5655;48.744;9.162;2024-01-27T09:10:03;97968.28;;;4.49;100.00
11198;BME280;5655;48.744;9.162;2024-01-27T09:12:29;97970.88;;;4.54;100.00
11198;BME280;5655;48.744;9.162;2024-01-27T09:14:54;97974.50;;;4.40;100.00
11198;BME280;5655;48.744;9.162;2024-01-27T09:17:22;97965.78;;;4.58;100.00
11198;BME280;5655;48.744;9.162;2024-01-27T09:19:48;97962.06;;;4.59;100.00
11198;BME280;5655;48.744;9.162;2024-01-27T09:22:13;97969.91;;;4.69;100.00
11198;BME280;5655;48.744;9.162;2024-01-27T09:24:39;97972.69;;;4.59;100.00
11198;BME280;5655;48.744;9.162;2024-01-27T09:27:04;97982.59;;;4.72;100.00
11198;BME280;5655;48.744;9.162;2024-01-27T09:29:30;97982.16;;;4.65;100.00
11198;BME280;5655;48.744;9.162;2024-01-27T09:31:55;97984.19;;;5.11;100.00
11198;BME280;5655;48.744;9.162;2024-01-27T09:34:21;97977.66;;;5.40;100.00
11198;BME280;5655;48.744;9.162;2024-01-27T09:36:46;97981.63;;;5.57;100.00
11198;BME280;5655;48.744;9.162;2024-01-27T09:39:11;97992.03;;;5.72;100.00
11198;BME280;5655;48.744;9.162;2024-01-27T09:41:37;97993.97;;;5.66;100.00
11198;BME280;5655;48.744;9.162;2024-01-27T09:44:03;97994.16;;;5.56;100.00
11198;BME280;5655;48.744;9.162;2024-01-27T09:46:30;98000.66;;;5.64;100.00
11198;BME280;5655;48.744;9.162;2024-01-27T09:48:56;97995.97;;;5.74;100.00
11198;BME280;5655;48.744;9.162;2024-01-27T09:51:21;98003.06;;;5.79;100.00
11198;BME280;5655;48.744;9.162;2024-01-27T09:53:48;98009.28;;;6.07;100.00
11198;BME280;5655;48.744;9.162;2024-01-27T09:56:15;98010.59;;;6.50;100.00
11198;BME280;5655;48.744;9.162;2024-01-27T09:58:43;97999.53;;;6.84;100.00
11198;BME280;5655;48.744;9.162;2024-01-27T10:01:10;98017.66;;;6.96;100.00
11198;BME280;5655;48.744;9.162;2024-01-27T10:03:36;98020.97;;;7.15;100.00
11198;BME280;5655;48.744;9.162;2024-01-27T10:06:08;98018.72;;;7.44;100.00
11198;BME280;5655;48.744;9.162;2024-01-27T10:08:33;98017.59;;;7.59;100.00
11198;BME280;5655;48.744;9.162;2024-01-27T10:10:59;98027.59;;;7.98;100.00
11198;BME280;5655;48.744;9.162;2024-01-27T10:13:24;98031.09;;;7.85;100.00
11198;BME280;5655;48.744;9.162;2024-01-27T10:16:00;98020.66;;;8.19;100.00
11198;BME280;5655;48.744;9.162;2024-01-27T10:18:26;98022.56;;;8.27;100.00
11198;BME280;5655;48.744;9.162;2024-01-27T10:20:51;98014.56;;;8.27;100.00
11198;BME280;5655;48.744;9.162;2024-01-27T10:23:16;98027.47;;;8.64;100.00
11198;BME280;5655;48.744;9.162;2024-01-27T10:25:43;98025.78;;;8.86;100.00
11198;BME280;5655;48.744;9.162;2024-01-27T10:28:09;98027.66;;;8.77;100.00
11198;BME280;5655;48.744;9.162;2024-01-27T10:30:34;98025.06;;;9.11;100.00
11198;BME280;5655;48.744;9.162;2024-01-27T10:32:59;98024.88;;;8.99;100.00
11198;BME280;5655;48.744;9.162;2024-01-27T10:35:25;98016.59;;;9.18;100.00
11198;BME280;5655;48.744;9.162;2024-01-27T10:37:52;98017.84;;;9.63;100.00
11198;BME280;5655;48.744;9.162;2024-01-27T10:40:18;98022.13;;;9.47;100.00
11198;BME280;5655;48.744;9.162;2024-01-27T10:42:44;98025.56;;;9.82;100.00
11198;BME280;5655;48.744;9.162;2024-01-27T10:45:11;98015.97;;;9.81;100.00
11198;BME280;5655;48.744;9.162;2024-01-27T10:47:38;97996.94;;;9.74;100.00
11198;BME280;5655;48.744;9.162;2024-01-27T10:50:08;98000.56;;;9.69;100.00
11198;BME280;5655;48.744;9.162;2024-01-27T10:52:40;97995.00;;;10.00;100.00
11198;BME280;5655;48.744;9.162;2024-01-27T10:55:09;97995.34;;;9.90;100.00
11198;BME280;5655;48.744;9.162;2024-01-27T10:57:37;97987.31;;;9.90;100.00
11198;BME280;5655;48.744;9.162;2024-01-27T11:00:04;97981.78;;;10.50;100.00
11198;BME280;5655;48.744;9.162;2024-01-27T11:02:33;97987.97;;;9.78;100.00
11198;BME280;5655;48.744;9.162;2024-01-27T11:05:02;97970.53;;;10.27;100.00
11198;BME280;5655;48.744;9.162;2024-01-27T11:07:30;97978.16;;;10.55;100.00
11198;BME280;5655;48.744;9.162;2024-01-27T11:09:57;97976.22;;;10.64;100.00
11198;BME280;5655;48.744;9.162;2024-01-27T11:12:23;97981.38;;;10.98;100.00
11198;BME280;5655;48.744;9.162;2024-01-27T11:14:48;97963.09;;;11.00;100.00
11198;BME280;5655;48.744;9.162;2024-01-27T11:17:17;97956.09;;;10.58;100.00
11198;BME280;5655;48.744;9.162;2024-01-27T11:19:44;97954.59;;;11.19;100.00
11198;BME280;5655;48.744;9.162;2024-01-27T11:22:24;97957.47;;;11.34;100.00
11198;BME280;5655;48.744;9.162;2024-01-27T11:24:50;97953.41;;;11.28;100.00
11198;BME280;5655;48.744;9.162;2024-01-27T11:27:15;97950.53;;;11.33;100.00
11198;BME280;5655;48.744;9.162;2024-01-27T11:29:47;97950.47;;;11.42;100.00
11198;BME280;5655;48.744;9.162;2024-01-27T11:32:12;97936.13;;;11.59;100.00
11198;BME280;5655;48.744;9.162;2024-01-27T11:34:44;97946.69;;;11.76;100.00
11198;BME280;5655;48.744;9.162;2024-01-27T11:37:20;97950.09;;;11.85;100.00
11198;BME280;5655;48.744;9.162;2024-01-27T11:39:50;97949.56;;;11.71;100.00
11198;BME280;5655;48.744;9.162;2024-01-27T11:42:17;97950.09;;;11.85;100.00
11198;BME280;5655;48.744;9.162;2024-01-27T11:44:43;97965.44;;;11.43;100.00
11198;BME280;5655;48.744;9.162;2024-01-27T11:47:17;97957.16;;;11.69;100.00
11198;BME280;5655;48.744;9.162;2024-01-27T11:49:43;97957.06;;;12.10;100.00
11198;BME280;5655;48.744;9.162;2024-01-27T11:52:09;97937.53;;;11.77;100.00
11198;BME280;5655;48.744;9.162;2024-01-27T11:54:34;97945.53;;;12.10;100.00
11198;BME280;5655;48.744;9.162;2024-01-27T11:57:01;97946.03;;;12.72;100.00
11198;BME280;5655;48.744;9.162;2024-01-27T11:59:26;97953.72;;;12.98;100.00
11198;BME280;5655;48.744;9.162;2024-01-27T12:01:52;97936.63;;;12.66;100.00
11198;BME280;5655;48.744;9.162;2024-01-27T12:04:18;97948.94;;;12.80;100.00
11198;BME280;5655;48.744;9.162;2024-01-27T12:06:43;97942.78;;;12.67;100.00
11198;BME280;5655;48.744;9.162;2024-01-27T12:09:09;97945.28;;;13.24;100.00
11198;BME280;5655;48.744;9.162;2024-01-27T12:11:38;97945.53;;;12.95;100.00
11198;BME280;5655;48.744;9.162;2024-01-27T12:14:05;97940.28;;;12.86;100.00
11198;BME280;5655;48.744;9.162;2024-01-27T12:16:30;97937.09;;;13.08;100.00
11198;BME280;5655;48.744;9.162;2024-01-27T12:18:56;97931.00;;;13.36;100.00
11198;BME280;5655;48.744;9.162;2024-01-27T12:21:21;97930.59;;;13.22;100.00
11198;BME280;5655;48.744;9.162;2024-01-27T12:23:54;97929.53;;;13.66;100.00
11198;BME280;5655;48.744;9.162;2024-01-27T12:26:20;97931.81;;;13.80;100.00
11198;BME280;5655;48.744;9.162;2024-01-27T12:28:46;97931.69;;;13.60;100.00
11198;BME280;5655;48.744;9.162;2024-01-27T12:31:16;97926.38;;;13.64;100.00
11198;BME280;5655;48.744;9.162;2024-01-27T12:33:53;97909.69;;;13.43;100.00
11198;BME280;5655;48.744;9.162;2024-01-27T12:36:19;97914.97;;;13.67;100.00
11198;BME280;5655;48.744;9.162;2024-01-27T12:39:08;97913.78;;;14.12;100.00
11198;BME280;5655;48.744;9.162;2024-01-27T12:41:34;97906.69;;;13.60;100.00
11198;BME280;5655;48.744;9.162;2024-01-27T12:43:59;97898.91;;;13.43;100.00
11198;BME280;5655;48.744;9.162;2024-01-27T12:46:25;97887.94;;;13.08;100.00
11198;BME280;5655;48.744;9.162;2024-01-27T12:48:50;97896.84;;;13.80;100.00
11198;BME280;5655;48.744;9.162;2024-01-27T12:51:16;97889.25;;;13.26;100.00
11198;BME280;5655;48.744;9.162;2024-01-27T12:53:42;97899.78;;;13.90;100.00
11198;BME280;5655;48.744;9.162;2024-01-27T12:56:14;97893.72;;;14.09;100.00
11198;BME280;5655;48.744;9.162;2024-01-27T12:58:40;97892.81;;;13.58;100.00
11198;BME280;5655;48.744;9.162;2024-01-27T13:01:07;97894.16;;;13.95;100.00
11198;BME280;5655;48.744;9.162;2024-01-27T13:03:32;97901.19;;;13.84;100.00
11198;BME280;5655;48.744;9.162;2024-01-27T13:05:58;97891.91;;;13.97;100.00